sensor_id;sensor_type;location;lat;lon;timestamp;P1;durP1;ratioP1;P2;durP2;ratioP2
61505;SDS011;47366;51.916;4.574;2023-06-22T00:00:43;8.77;;;4.17;;
61505;SDS011;47366;51.916;4.574;2023-06-22T00:03:09;8.68;;;4.40;;
61505;SDS011;47366;51.916;4.574;2023-06-22T00:05:35;11.38;;;4.60;;
61505;SDS011;47366;51.916;4.574;2023-06-22T00:08:03;7.82;;;4.47;;
61505;SDS011;47366;51.916;4.574;2023-06-22T00:10:32;7.20;;;4.03;;
61505;SDS011;47366;51.916;4.574;2023-06-22T00:12:57;7.88;;;4.65;;
61505;SDS011;47366;51.916;4.574;2023-06-22T00:15:23;5.97;;;3.67;;
61505;SDS011;47366;51.916;4.574;2023-06-22T00:17:49;9.05;;;4.18;;
61505;SDS011;47366;51.916;4.574;2023-06-22T00:20:14;7.32;;;4.30;;
61505;SDS011;47366;51.916;4.574;2023-06-22T00:22:41;6.55;;;4.05;;
61505;SDS011;47366;51.916;4.574;2023-06-22T00:25:08;8.25;;;3.70;;
61505;SDS011;47366;51.916;4.574;2023-06-22T00:27:34;9.35;;;4.63;;
61505;SDS011;47366;51.916;4.574;2023-06-22T00:30:00;8.18;;;4.18;;
61505;SDS011;47366;51.916;4.574;2023-06-22T00:32:25;7.38;;;4.30;;
61505;SDS011;47366;51.916;4.574;2023-06-22T00:34:50;7.57;;;3.85;;
61505;SDS011;47366;51.916;4.574;2023-06-22T00:37:16;9.65;;;4.47;;
61505;SDS011;47366;51.916;4.574;2023-06-22T00:39:43;7.22;;;4.28;;
61505;SDS011;47366;51.916;4.574;2023-06-22T00:42:08;7.57;;;3.97;;
61505;SDS011;47366;51.916;4.574;2023-06-22T00:44:34;7.88;;;3.47;;
61505;SDS011;47366;51.916;4.574;2023-06-22T00:47:00;6.30;;;3.60;;
61505;SDS011;47366;51.916;4.574;2023-06-22T00:49:25;5.97;;;3.40;;
61505;SDS011;47366;51.916;4.574;2023-06-22T00:51:51;5.68;;;3.33;;
61505;SDS011;47366;51.916;4.574;2023-06-22T00:54:17;7.70;;;3.50;;
61505;SDS011;47366;51.916;4.574;2023-06-22T00:56:55;7.53;;;4.20;;
61505;SDS011;47366;51.916;4.574;2023-06-22T00:59:23;8.85;;;3.72;;
61505;SDS011;47366;51.916;4.574;2023-06-22T01:01:49;7.68;;;3.63;;
61505;SDS011;47366;51.916;4.574;2023-06-22T01:04:15;10.05;;;3.88;;
61505;SDS011;47366;51.916;4.574;2023-06-22T01:07:03;6.55;;;3.55;;
61505;SDS011;47366;51.916;4.574;2023-06-22T01:09:41;6.75;;;3.65;;
61505;SDS011;47366;51.916;4.574;2023-06-22T01:12:15;7.10;;;3.78;;
61505;SDS011;47366;51.916;4.574;2023-06-22T01:14:43;8.35;;;4.00;;
61505;SDS011;47366;51.916;4.574;2023-06-22T01:17:17;6.90;;;3.65;;
61505;SDS011;47366;51.916;4.574;2023-06-22T01:22:12;9.45;;;4.00;;
61505;SDS011;47366;51.916;4.574;2023-06-22T01:30:00;6.03;;;3.47;;
61505;SDS011;47366;51.916;4.574;2023-06-22T01:32:31;7.63;;;3.67;;
61505;SDS011;47366;51.916;4.574;2023-06-22T01:37:26;8.25;;;3.42;;
61505;SDS011;47366;51.916;4.574;2023-06-22T01:39:54;6.68;;;3.72;;
61505;SDS011;47366;51.916;4.574;2023-06-22T01:42:20;8.18;;;3.83;;
61505;SDS011;47366;51.916;4.574;2023-06-22T01:44:48;8.50;;;3.55;;
61505;SDS011;47366;51.916;4.574;2023-06-22T01:47:13;5.78;;;3.50;;
61505;SDS011;47366;51.916;4.574;2023-06-22T01:49:40;8.23;;;4.15;;
61505;SDS011;47366;51.916;4.574;2023-06-22T01:52:06;9.07;;;4.00;;
61505;SDS011;47366;51.916;4.574;2023-06-22T01:54:32;6.70;;;3.53;;
61505;SDS011;47366;51.916;4.574;2023-06-22T01:56:58;7.25;;;3.85;;
61505;SDS011;47366;51.916;4.574;2023-06-22T01:59:28;7.07;;;3.92;;
61505;SDS011;47366;51.916;4.574;2023-06-22T02:02:04;8.90;;;4.47;;
61505;SDS011;47366;51.916;4.574;2023-06-22T02:04:35;7.78;;;4.07;;
61505;SDS011;47366;51.916;4.574;2023-06-22T02:07:09;7.70;;;4.28;;
61505;SDS011;47366;51.916;4.574;2023-06-22T02:09:38;8.73;;;4.35;;
61505;SDS011;47366;51.916;4.574;2023-06-22T02:12:07;7.50;;;4.40;;
61505;SDS011;47366;51.916;4.574;2023-06-22T02:14:35;6.65;;;3.95;;
61505;SDS011;47366;51.916;4.574;2023-06-22T02:17:02;9.85;;;4.65;;
61505;SDS011;47366;51.916;4.574;2023-06-22T02:19:29;8.88;;;4.68;;
61505;SDS011;47366;51.916;4.574;2023-06-22T02:21:58;9.02;;;4.55;;
61505;SDS011;47366;51.916;4.574;2023-06-22T02:24:23;11.05;;;4.80;;
61505;SDS011;47366;51.916;4.574;2023-06-22T02:26:49;9.10;;;4.75;;
61505;SDS011;47366;51.916;4.574;2023-06-22T02:29:14;7.30;;;4.45;;
61505;SDS011;47366;51.916;4.574;2023-06-22T02:31:39;10.70;;;5.50;;
61505;SDS011;47366;51.916;4.574;2023-06-22T02:34:05;10.27;;;5.05;;
61505;SDS011;47366;51.916;4.574;2023-06-22T02:36:30;12.98;;;5.60;;
61505;SDS011;47366;51.916;4.574;2023-06-22T02:38:58;10.05;;;4.70;;
61505;SDS011;47366;51.916;4.574;2023-06-22T02:41:26;11.43;;;5.43;;
61505;SDS011;47366;51.916;4.574;2023-06-22T02:43:52;10.63;;;5.35;;
61505;SDS011;47366;51.916;4.574;2023-06-22T02:46:17;9.85;;;5.22;;
61505;SDS011;47366;51.916;4.574;2023-06-22T02:48:42;10.30;;;5.53;;
61505;SDS011;47366;51.916;4.574;2023-06-22T02:51:08;11.85;;;5.53;;
61505;SDS011;47366;51.916;4.574;2023-06-22T02:53:34;10.43;;;5.43;;
61505;SDS011;47366;51.916;4.574;2023-06-22T02:56:00;10.82;;;5.80;;
61505;SDS011;47366;51.916;4.574;2023-06-22T02:58:30;12.43;;;5.90;;
61505;SDS011;47366;51.916;4.574;2023-06-22T03:00:55;9.32;;;5.78;;
61505;SDS011;47366;51.916;4.574;2023-06-22T03:03:21;15.02;;;5.95;;
61505;SDS011;47366;51.916;4.574;2023-06-22T03:05:46;11.13;;;5.25;;
61505;SDS011;47366;51.916;4.574;2023-06-22T03:08:11;9.57;;;4.85;;
61505;SDS011;47366;51.916;4.574;2023-06-22T03:10:37;11.50;;;5.15;;
61505;SDS011;47366;51.916;4.574;2023-06-22T03:13:02;12.25;;;5.88;;
61505;SDS011;47366;51.916;4.574;2023-06-22T03:15:27;10.88;;;5.85;;
61505;SDS011;47366;51.916;4.574;2023-06-22T03:17:54;13.10;;;6.13;;
61505;SDS011;47366;51.916;4.574;2023-06-22T03:20:20;11.13;;;5.57;;
61505;SDS011;47366;51.916;4.574;2023-06-22T03:22:45;10.25;;;5.60;;
61505;SDS011;47366;51.916;4.574;2023-06-22T03:25:11;10.43;;;6.10;;
61505;SDS011;47366;51.916;4.574;2023-06-22T03:27:42;9.68;;;5.40;;
61505;SDS011;47366;51.916;4.574;2023-06-22T03:30:10;11.15;;;5.35;;
61505;SDS011;47366;51.916;4.574;2023-06-22T03:32:36;14.80;;;6.30;;
61505;SDS011;47366;51.916;4.574;2023-06-22T03:35:02;11.10;;;6.00;;
61505;SDS011;47366;51.916;4.574;2023-06-22T03:37:28;9.98;;;5.85;;
61505;SDS011;47366;51.916;4.574;2023-06-22T03:39:53;13.27;;;5.75;;
61505;SDS011;47366;51.916;4.574;2023-06-22T03:42:18;11.55;;;5.60;;
61505;SDS011;47366;51.916;4.574;2023-06-22T03:44:44;13.63;;;6.07;;
61505;SDS011;47366;51.916;4.574;2023-06-22T03:47:09;11.07;;;6.00;;
61505;SDS011;47366;51.916;4.574;2023-06-22T03:49:35;10.25;;;5.57;;
61505;SDS011;47366;51.916;4.574;2023-06-22T03:52:01;11.00;;;6.07;;
61505;SDS011;47366;51.916;4.574;2023-06-22T03:54:28;13.50;;;6.40;;
61505;SDS011;47366;51.916;4.574;2023-06-22T03:56:53;12.23;;;6.35;;
61505;SDS011;47366;51.916;4.574;2023-06-22T03:59:19;9.73;;;5.32;;
61505;SDS011;47366;51.916;4.574;2023-06-22T04:01:44;12.20;;;6.13;;
61505;SDS011;47366;51.916;4.574;2023-06-22T04:04:09;9.90;;;5.70;;
61505;SDS011;47366;51.916;4.574;2023-06-22T04:06:35;10.70;;;5.70;;
61505;SDS011;47366;51.916;4.574;2023-06-22T04:09:00;11.90;;;5.57;;
61505;SDS011;47366;51.916;4.574;2023-06-22T04:11:26;13.15;;;6.00;;
61505;SDS011;47366;51.916;4.574;2023-06-22T04:13:51;11.45;;;5.45;;
61505;SDS011;47366;51.916;4.574;2023-06-22T04:16:17;9.52;;;5.43;;
61505;SDS011;47366;51.916;4.574;2023-06-22T04:18:42;13.98;;;6.10;;
61505;SDS011;47366;51.916;4.574;2023-06-22T04:21:07;15.07;;;5.88;;
61505;SDS011;47366;51.916;4.574;2023-06-22T04:23:33;13.65;;;5.57;;
61505;SDS011;47366;51.916;4.574;2023-06-22T04:25:58;10.95;;;5.75;;
61505;SDS011;47366;51.916;4.574;2023-06-22T04:28:24;13.10;;;6.32;;
61505;SDS011;47366;51.916;4.574;2023-06-22T04:30:49;11.30;;;5.70;;
61505;SDS011;47366;51.916;4.574;2023-06-22T04:33:15;10.68;;;5.88;;
61505;SDS011;47366;51.916;4.574;2023-06-22T04:35:44;10.68;;;5.72;;
61505;SDS011;47366;51.916;4.574;2023-06-22T04:38:11;13.25;;;5.57;;
61505;SDS011;47366;51.916;4.574;2023-06-22T04:40:38;10.38;;;5.35;;
61505;SDS011;47366;51.916;4.574;2023-06-22T04:43:04;9.48;;;5.00;;
61505;SDS011;47366;51.916;4.574;2023-06-22T04:45:31;15.40;;;6.28;;
61505;SDS011;47366;51.916;4.574;2023-06-22T04:47:57;12.85;;;5.25;;
61505;SDS011;47366;51.916;4.574;2023-06-22T04:50:23;13.52;;;5.63;;
61505;SDS011;47366;51.916;4.574;2023-06-22T04:52:49;11.85;;;6.05;;
61505;SDS011;47366;51.916;4.574;2023-06-22T04:55:14;10.48;;;5.57;;
61505;SDS011;47366;51.916;4.574;2023-06-22T04:57:45;13.00;;;5.47;;
61505;SDS011;47366;51.916;4.574;2023-06-22T05:00:14;11.10;;;5.32;;
61505;SDS011;47366;51.916;4.574;2023-06-22T05:02:43;13.57;;;5.60;;
61505;SDS011;47366;51.916;4.574;2023-06-22T05:05:09;11.55;;;5.43;;
61505;SDS011;47366;51.916;4.574;2023-06-22T05:07:38;9.60;;;5.38;;
61505;SDS011;47366;51.916;4.574;2023-06-22T05:10:04;10.70;;;5.47;;
61505;SDS011;47366;51.916;4.574;2023-06-22T05:12:30;10.00;;;5.57;;
61505;SDS011;47366;51.916;4.574;2023-06-22T05:14:56;12.57;;;5.72;;
61505;SDS011;47366;51.916;4.574;2023-06-22T05:17:21;8.65;;;5.35;;
61505;SDS011;47366;51.916;4.574;2023-06-22T05:19:47;11.90;;;5.28;;
61505;SDS011;47366;51.916;4.574;2023-06-22T05:22:15;11.43;;;5.70;;
61505;SDS011;47366;51.916;4.574;2023-06-22T05:24:41;10.65;;;5.30;;
61505;SDS011;47366;51.916;4.574;2023-06-22T05:27:07;9.63;;;5.05;;
61505;SDS011;47366;51.916;4.574;2023-06-22T05:29:33;9.18;;;4.93;;
61505;SDS011;47366;51.916;4.574;2023-06-22T05:31:58;8.95;;;4.78;;
61505;SDS011;47366;51.916;4.574;2023-06-22T05:34:24;10.27;;;5.18;;
61505;SDS011;47366;51.916;4.574;2023-06-22T05:36:49;12.27;;;5.40;;
61505;SDS011;47366;51.916;4.574;2023-06-22T05:39:14;10.85;;;4.97;;
61505;SDS011;47366;51.916;4.574;2023-06-22T05:41:40;10.02;;;4.55;;
61505;SDS011;47366;51.916;4.574;2023-06-22T05:44:06;9.20;;;4.25;;
61505;SDS011;47366;51.916;4.574;2023-06-22T05:46:32;7.30;;;4.70;;
61505;SDS011;47366;51.916;4.574;2023-06-22T05:48:57;8.40;;;4.80;;
61505;SDS011;47366;51.916;4.574;2023-06-22T05:51:23;6.60;;;4.35;;
61505;SDS011;47366;51.916;4.574;2023-06-22T05:53:48;10.50;;;4.88;;
61505;SDS011;47366;51.916;4.574;2023-06-22T05:56:15;8.52;;;3.83;;
61505;SDS011;47366;51.916;4.574;2023-06-22T05:58:41;7.15;;;3.95;;
61505;SDS011;47366;51.916;4.574;2023-06-22T06:01:06;6.43;;;3.90;;
61505;SDS011;47366;51.916;4.574;2023-06-22T06:03:31;8.07;;;4.80;;
61505;SDS011;47366;51.916;4.574;2023-06-22T06:05:57;8.07;;;4.47;;
61505;SDS011;47366;51.916;4.574;2023-06-22T06:08:22;9.05;;;5.18;;
61505;SDS011;47366;51.916;4.574;2023-06-22T06:10:47;6.93;;;4.25;;
61505;SDS011;47366;51.916;4.574;2023-06-22T06:13:13;8.00;;;4.05;;
61505;SDS011;47366;51.916;4.574;2023-06-22T06:15:38;10.10;;;4.60;;
61505;SDS011;47366;51.916;4.574;2023-06-22T06:18:03;7.63;;;3.65;;
61505;SDS011;47366;51.916;4.574;2023-06-22T06:20:30;8.90;;;4.40;;
61505;SDS011;47366;51.916;4.574;2023-06-22T06:22:56;7.15;;;3.83;;
61505;SDS011;47366;51.916;4.574;2023-06-22T06:25:22;9.07;;;3.85;;
61505;SDS011;47366;51.916;4.574;2023-06-22T06:27:48;6.07;;;3.50;;
61505;SDS011;47366;51.916;4.574;2023-06-22T06:30:17;6.43;;;3.58;;
61505;SDS011;47366;51.916;4.574;2023-06-22T06:32:43;8.80;;;4.05;;
61505;SDS011;47366;51.916;4.574;2023-06-22T06:35:11;8.50;;;4.53;;
61505;SDS011;47366;51.916;4.574;2023-06-22T06:37:37;10.23;;;3.78;;
61505;SDS011;47366;51.916;4.574;2023-06-22T06:40:08;6.43;;;3.47;;
61505;SDS011;47366;51.916;4.574;2023-06-22T06:42:38;5.30;;;3.40;;
61505;SDS011;47366;51.916;4.574;2023-06-22T06:45:07;5.53;;;3.58;;
61505;SDS011;47366;51.916;4.574;2023-06-22T06:47:33;6.47;;;3.40;;
61505;SDS011;47366;51.916;4.574;2023-06-22T06:49:58;6.03;;;3.00;;
61505;SDS011;47366;51.916;4.574;2023-06-22T06:52:24;5.20;;;3.42;;
61505;SDS011;47366;51.916;4.574;2023-06-22T06:54:50;5.85;;;3.42;;
61505;SDS011;47366;51.916;4.574;2023-06-22T06:57:17;4.85;;;2.97;;
61505;SDS011;47366;51.916;4.574;2023-06-22T06:59:43;6.30;;;2.95;;
61505;SDS011;47366;51.916;4.574;2023-06-22T07:02:08;7.97;;;3.28;;
61505;SDS011;47366;51.916;4.574;2023-06-22T07:04:33;5.80;;;3.10;;
61505;SDS011;47366;51.916;4.574;2023-06-22T07:07:00;5.03;;;2.55;;
61505;SDS011;47366;51.916;4.574;2023-06-22T07:09:26;5.45;;;3.08;;
61505;SDS011;47366;51.916;4.574;2023-06-22T07:11:52;7.65;;;2.97;;
61505;SDS011;47366;51.916;4.574;2023-06-22T07:14:17;5.63;;;2.63;;
61505;SDS011;47366;51.916;4.574;2023-06-22T07:16:43;4.30;;;2.72;;
61505;SDS011;47366;51.916;4.574;2023-06-22T07:19:08;6.20;;;3.22;;
61505;SDS011;47366;51.916;4.574;2023-06-22T07:21:36;8.82;;;2.78;;
61505;SDS011;47366;51.916;4.574;2023-06-22T07:24:01;8.38;;;2.50;;
61505;SDS011;47366;51.916;4.574;2023-06-22T07:26:26;6.38;;;2.60;;
61505;SDS011;47366;51.916;4.574;2023-06-22T07:28:52;14.02;;;3.90;;
61505;SDS011;47366;51.916;4.574;2023-06-22T07:31:17;5.22;;;2.65;;
61505;SDS011;47366;51.916;4.574;2023-06-22T07:33:42;3.70;;;2.15;;
61505;SDS011;47366;51.916;4.574;2023-06-22T07:36:08;3.47;;;1.85;;
61505;SDS011;47366;51.916;4.574;2023-06-22T07:38:33;4.47;;;2.47;;
61505;SDS011;47366;51.916;4.574;2023-06-22T07:41:00;3.97;;;2.25;;
61505;SDS011;47366;51.916;4.574;2023-06-22T07:43:25;4.75;;;2.35;;
61505;SDS011;47366;51.916;4.574;2023-06-22T07:45:51;5.45;;;2.75;;
61505;SDS011;47366;51.916;4.574;2023-06-22T07:48:22;5.55;;;2.70;;
61505;SDS011;47366;51.916;4.574;2023-06-22T07:50:48;5.47;;;2.53;;
61505;SDS011;47366;51.916;4.574;2023-06-22T07:53:14;5.93;;;2.63;;
61505;SDS011;47366;51.916;4.574;2023-06-22T07:55:39;3.88;;;2.28;;
61505;SDS011;47366;51.916;4.574;2023-06-22T07:58:05;4.63;;;2.70;;
61505;SDS011;47366;51.916;4.574;2023-06-22T08:00:30;5.45;;;2.45;;
61505;SDS011;47366;51.916;4.574;2023-06-22T08:02:56;4.25;;;2.30;;
61505;SDS011;47366;51.916;4.574;2023-06-22T08:05:21;3.88;;;1.80;;
61505;SDS011;47366;51.916;4.574;2023-06-22T08:07:46;3.20;;;1.42;;
61505;SDS011;47366;51.916;4.574;2023-06-22T08:10:12;2.28;;;1.20;;
61505;SDS011;47366;51.916;4.574;2023-06-22T08:12:38;4.75;;;1.10;;
61505;SDS011;47366;51.916;4.574;2023-06-22T08:15:05;2.13;;;1.10;;
61505;SDS011;47366;51.916;4.574;2023-06-22T08:17:32;2.42;;;1.10;;
61505;SDS011;47366;51.916;4.574;2023-06-22T08:19:58;2.05;;;0.95;;
61505;SDS011;47366;51.916;4.574;2023-06-22T08:22:23;1.55;;;1.13;;
61505;SDS011;47366;51.916;4.574;2023-06-22T08:24:49;4.15;;;1.85;;
61505;SDS011;47366;51.916;4.574;2023-06-22T08:27:14;3.53;;;1.90;;
61505;SDS011;47366;51.916;4.574;2023-06-22T08:29:41;4.53;;;2.28;;
61505;SDS011;47366;51.916;4.574;2023-06-22T08:32:08;6.28;;;3.38;;
61505;SDS011;47366;51.916;4.574;2023-06-22T08:34:34;7.10;;;3.45;;
61505;SDS011;47366;51.916;4.574;2023-06-22T08:37:01;5.30;;;2.72;;
61505;SDS011;47366;51.916;4.574;2023-06-22T08:39:27;5.57;;;2.92;;
61505;SDS011;47366;51.916;4.574;2023-06-22T08:41:53;6.70;;;3.90;;
61505;SDS011;47366;51.916;4.574;2023-06-22T08:44:18;8.07;;;3.83;;
61505;SDS011;47366;51.916;4.574;2023-06-22T08:46:44;7.10;;;3.75;;
61505;SDS011;47366;51.916;4.574;2023-06-22T08:49:10;8.07;;;4.10;;
61505;SDS011;47366;51.916;4.574;2023-06-22T08:51:35;8.40;;;4.20;;
61505;SDS011;47366;51.916;4.574;2023-06-22T08:54:01;6.85;;;4.13;;
61505;SDS011;47366;51.916;4.574;2023-06-22T08:56:27;7.82;;;4.15;;
61505;SDS011;47366;51.916;4.574;2023-06-22T08:58:52;10.60;;;4.22;;
61505;SDS011;47366;51.916;4.574;2023-06-22T09:01:17;8.55;;;4.82;;
61505;SDS011;47366;51.916;4.574;2023-06-22T09:03:43;7.22;;;4.18;;
61505;SDS011;47366;51.916;4.574;2023-06-22T09:06:08;9.82;;;4.35;;
61505;SDS011;47366;51.916;4.574;2023-06-22T09:08:37;8.32;;;4.35;;
61505;SDS011;47366;51.916;4.574;2023-06-22T09:11:02;6.82;;;4.20;;
61505;SDS011;47366;51.916;4.574;2023-06-22T09:13:30;9.65;;;4.20;;
61505;SDS011;47366;51.916;4.574;2023-06-22T09:15:56;9.95;;;5.13;;
61505;SDS011;47366;51.916;4.574;2023-06-22T09:18:21;9.88;;;4.68;;
61505;SDS011;47366;51.916;4.574;2023-06-22T09:20:47;11.02;;;4.55;;
61505;SDS011;47366;51.916;4.574;2023-06-22T09:23:12;10.18;;;5.32;;
61505;SDS011;47366;51.916;4.574;2023-06-22T09:25:37;11.00;;;5.38;;
61505;SDS011;47366;51.916;4.574;2023-06-22T09:28:03;8.18;;;5.10;;
61505;SDS011;47366;51.916;4.574;2023-06-22T09:30:28;9.52;;;5.78;;
61505;SDS011;47366;51.916;4.574;2023-06-22T09:32:53;8.70;;;5.28;;
61505;SDS011;47366;51.916;4.574;2023-06-22T09:35:19;9.50;;;5.05;;
61505;SDS011;47366;51.916;4.574;2023-06-22T09:37:45;9.70;;;5.15;;
61505;SDS011;47366;51.916;4.574;2023-06-22T09:40:10;9.35;;;5.28;;
61505;SDS011;47366;51.916;4.574;2023-06-22T09:42:38;9.38;;;5.65;;
61505;SDS011;47366;51.916;4.574;2023-06-22T09:45:04;9.30;;;5.43;;
61505;SDS011;47366;51.916;4.574;2023-06-22T09:47:30;7.80;;;4.50;;
61505;SDS011;47366;51.916;4.574;2023-06-22T09:49:56;9.40;;;4.53;;
61505;SDS011;47366;51.916;4.574;2023-06-22T09:52:21;7.40;;;4.30;;
61505;SDS011;47366;51.916;4.574;2023-06-22T09:54:47;7.15;;;4.40;;
61505;SDS011;47366;51.916;4.574;2023-06-22T09:57:12;8.43;;;4.57;;
61505;SDS011;47366;51.916;4.574;2023-06-22T09:59:38;6.90;;;4.22;;
61505;SDS011;47366;51.916;4.574;2023-06-22T10:02:05;6.90;;;4.10;;
61505;SDS011;47366;51.916;4.574;2023-06-22T10:04:32;7.70;;;3.65;;
61505;SDS011;47366;51.916;4.574;2023-06-22T10:06:57;7.38;;;4.35;;
61505;SDS011;47366;51.916;4.574;2023-06-22T10:09:22;7.55;;;4.13;;
61505;SDS011;47366;51.916;4.574;2023-06-22T10:11:48;9.77;;;4.35;;
61505;SDS011;47366;51.916;4.574;2023-06-22T10:14:13;7.72;;;4.28;;
61505;SDS011;47366;51.916;4.574;2023-06-22T10:16:38;8.77;;;3.72;;
61505;SDS011;47366;51.916;4.574;2023-06-22T10:19:06;6.00;;;3.22;;
61505;SDS011;47366;51.916;4.574;2023-06-22T10:21:33;5.97;;;3.33;;
61505;SDS011;47366;51.916;4.574;2023-06-22T10:23:59;6.90;;;3.35;;
61505;SDS011;47366;51.916;4.574;2023-06-22T10:26:30;5.78;;;3.03;;
61505;SDS011;47366;51.916;4.574;2023-06-22T10:28:56;6.47;;;3.03;;
61505;SDS011;47366;51.916;4.574;2023-06-22T10:31:21;5.25;;;3.15;;
61505;SDS011;47366;51.916;4.574;2023-06-22T10:33:47;5.03;;;3.13;;
61505;SDS011;47366;51.916;4.574;2023-06-22T10:36:14;5.65;;;3.65;;
61505;SDS011;47366;51.916;4.574;2023-06-22T10:38:40;7.07;;;3.67;;
61505;SDS011;47366;51.916;4.574;2023-06-22T10:41:05;6.63;;;3.85;;
61505;SDS011;47366;51.916;4.574;2023-06-22T10:43:31;9.63;;;3.85;;
61505;SDS011;47366;51.916;4.574;2023-06-22T10:45:56;8.90;;;3.95;;
61505;SDS011;47366;51.916;4.574;2023-06-22T10:48:21;6.35;;;3.90;;
61505;SDS011;47366;51.916;4.574;2023-06-22T10:50:47;5.55;;;3.20;;
61505;SDS011;47366;51.916;4.574;2023-06-22T10:53:12;6.25;;;3.45;;
61505;SDS011;47366;51.916;4.574;2023-06-22T10:55:37;6.22;;;3.78;;
61505;SDS011;47366;51.916;4.574;2023-06-22T10:58:03;4.95;;;3.08;;
61505;SDS011;47366;51.916;4.574;2023-06-22T11:00:28;5.80;;;3.15;;
61505;SDS011;47366;51.916;4.574;2023-06-22T11:02:54;5.32;;;3.22;;
61505;SDS011;47366;51.916;4.574;2023-06-22T11:05:19;5.53;;;3.20;;
61505;SDS011;47366;51.916;4.574;2023-06-22T11:07:44;5.88;;;3.45;;
61505;SDS011;47366;51.916;4.574;2023-06-22T11:10:10;5.75;;;3.45;;
61505;SDS011;47366;51.916;4.574;2023-06-22T11:12:36;6.65;;;3.63;;
61505;SDS011;47366;51.916;4.574;2023-06-22T11:15:02;7.90;;;3.47;;
61505;SDS011;47366;51.916;4.574;2023-06-22T11:17:27;7.55;;;4.20;;
61505;SDS011;47366;51.916;4.574;2023-06-22T11:19:53;7.28;;;4.13;;
61505;SDS011;47366;51.916;4.574;2023-06-22T11:22:18;8.27;;;4.15;;
61505;SDS011;47366;51.916;4.574;2023-06-22T11:24:43;7.55;;;4.15;;
61505;SDS011;47366;51.916;4.574;2023-06-22T11:27:09;6.35;;;3.30;;
61505;SDS011;47366;51.916;4.574;2023-06-22T11:29:34;6.43;;;3.38;;
61505;SDS011;47366;51.916;4.574;2023-06-22T11:32:00;6.88;;;3.92;;
61505;SDS011;47366;51.916;4.574;2023-06-22T11:34:26;5.75;;;3.40;;
61505;SDS011;47366;51.916;4.574;2023-06-22T11:36:51;7.28;;;3.58;;
61505;SDS011;47366;51.916;4.574;2023-06-22T11:39:16;5.05;;;3.40;;
61505;SDS011;47366;51.916;4.574;2023-06-22T11:41:42;5.75;;;3.85;;
61505;SDS011;47366;51.916;4.574;2023-06-22T11:44:07;8.82;;;3.28;;
61505;SDS011;47366;51.916;4.574;2023-06-22T11:46:33;7.00;;;3.80;;
61505;SDS011;47366;51.916;4.574;2023-06-22T11:48:59;6.60;;;3.92;;
61505;SDS011;47366;51.916;4.574;2023-06-22T11:51:25;8.13;;;3.85;;
61505;SDS011;47366;51.916;4.574;2023-06-22T11:53:50;6.68;;;3.65;;
61505;SDS011;47366;51.916;4.574;2023-06-22T11:56:16;6.65;;;4.43;;
61505;SDS011;47366;51.916;4.574;2023-06-22T11:58:41;7.50;;;4.22;;
61505;SDS011;47366;51.916;4.574;2023-06-22T12:01:07;8.00;;;4.15;;
61505;SDS011;47366;51.916;4.574;2023-06-22T12:03:32;9.38;;;4.78;;
61505;SDS011;47366;51.916;4.574;2023-06-22T12:05:57;8.05;;;4.55;;
61505;SDS011;47366;51.916;4.574;2023-06-22T12:08:23;9.50;;;5.38;;
61505;SDS011;47366;51.916;4.574;2023-06-22T12:10:49;8.57;;;5.30;;
61505;SDS011;47366;51.916;4.574;2023-06-22T12:13:15;8.65;;;5.25;;
61505;SDS011;47366;51.916;4.574;2023-06-22T12:15:40;7.65;;;4.80;;
61505;SDS011;47366;51.916;4.574;2023-06-22T12:18:06;8.85;;;5.22;;
61505;SDS011;47366;51.916;4.574;2023-06-22T12:20:31;9.63;;;5.75;;
61505;SDS011;47366;51.916;4.574;2023-06-22T12:22:57;11.45;;;5.78;;
61505;SDS011;47366;51.916;4.574;2023-06-22T12:25:23;10.13;;;5.68;;
61505;SDS011;47366;51.916;4.574;2023-06-22T12:27:48;5.78;;;4.18;;
61505;SDS011;47366;51.916;4.574;2023-06-22T12:30:15;9.30;;;5.15;;
61505;SDS011;47366;51.916;4.574;2023-06-22T12:32:41;9.07;;;5.15;;
61505;SDS011;47366;51.916;4.574;2023-06-22T12:35:06;9.05;;;5.30;;
61505;SDS011;47366;51.916;4.574;2023-06-22T12:37:37;7.57;;;5.32;;
61505;SDS011;47366;51.916;4.574;2023-06-22T12:40:02;12.73;;;5.28;;
61505;SDS011;47366;51.916;4.574;2023-06-22T12:42:29;11.65;;;5.68;;
61505;SDS011;47366;51.916;4.574;2023-06-22T12:44:54;12.10;;;6.07;;
61505;SDS011;47366;51.916;4.574;2023-06-22T12:47:19;10.35;;;5.93;;
61505;SDS011;47366;51.916;4.574;2023-06-22T12:49:45;9.35;;;6.15;;
61505;SDS011;47366;51.916;4.574;2023-06-22T12:52:10;9.85;;;5.75;;
61505;SDS011;47366;51.916;4.574;2023-06-22T12:54:36;12.02;;;6.45;;
61505;SDS011;47366;51.916;4.574;2023-06-22T12:57:01;9.32;;;6.20;;
61505;SDS011;47366;51.916;4.574;2023-06-22T12:59:27;10.02;;;6.40;;
61505;SDS011;47366;51.916;4.574;2023-06-22T13:01:52;10.05;;;6.10;;
61505;SDS011;47366;51.916;4.574;2023-06-22T13:04:17;10.05;;;5.90;;
61505;SDS011;47366;51.916;4.574;2023-06-22T13:06:44;12.15;;;6.93;;
61505;SDS011;47366;51.916;4.574;2023-06-22T13:09:13;11.30;;;7.05;;
61505;SDS011;47366;51.916;4.574;2023-06-22T13:11:39;10.65;;;6.78;;
61505;SDS011;47366;51.916;4.574;2023-06-22T13:14:05;11.27;;;6.82;;
61505;SDS011;47366;51.916;4.574;2023-06-22T13:16:30;11.15;;;6.47;;
61505;SDS011;47366;51.916;4.574;2023-06-22T13:18:55;8.98;;;6.25;;
61505;SDS011;47366;51.916;4.574;2023-06-22T13:21:21;10.85;;;6.65;;
61505;SDS011;47366;51.916;4.574;2023-06-22T13:23:46;10.65;;;6.70;;
61505;SDS011;47366;51.916;4.574;2023-06-22T13:26:11;13.73;;;7.57;;
61505;SDS011;47366;51.916;4.574;2023-06-22T13:28:37;12.15;;;6.80;;
61505;SDS011;47366;51.916;4.574;2023-06-22T13:31:02;14.20;;;7.40;;
61505;SDS011;47366;51.916;4.574;2023-06-22T13:33:27;11.35;;;7.20;;
61505;SDS011;47366;51.916;4.574;2023-06-22T13:35:53;10.23;;;6.85;;
61505;SDS011;47366;51.916;4.574;2023-06-22T13:38:18;13.50;;;6.68;;
61505;SDS011;47366;51.916;4.574;2023-06-22T13:40:44;13.52;;;7.05;;
61505;SDS011;47366;51.916;4.574;2023-06-22T13:43:09;10.85;;;7.07;;
61505;SDS011;47366;51.916;4.574;2023-06-22T13:45:34;11.80;;;7.10;;
61505;SDS011;47366;51.916;4.574;2023-06-22T13:48:00;14.73;;;7.65;;
61505;SDS011;47366;51.916;4.574;2023-06-22T13:50:25;11.57;;;7.10;;
61505;SDS011;47366;51.916;4.574;2023-06-22T13:52:51;9.07;;;6.20;;
61505;SDS011;47366;51.916;4.574;2023-06-22T13:55:16;16.05;;;6.63;;
61505;SDS011;47366;51.916;4.574;2023-06-22T13:57:42;13.20;;;7.90;;
61505;SDS011;47366;51.916;4.574;2023-06-22T14:00:08;11.18;;;6.75;;
61505;SDS011;47366;51.916;4.574;2023-06-22T14:02:34;10.20;;;6.97;;
61505;SDS011;47366;51.916;4.574;2023-06-22T14:04:59;12.70;;;6.72;;
61505;SDS011;47366;51.916;4.574;2023-06-22T14:07:25;12.40;;;7.00;;
61505;SDS011;47366;51.916;4.574;2023-06-22T14:09:50;10.90;;;6.30;;
61505;SDS011;47366;51.916;4.574;2023-06-22T14:12:16;11.70;;;7.00;;
61505;SDS011;47366;51.916;4.574;2023-06-22T14:14:43;11.63;;;6.57;;
61505;SDS011;47366;51.916;4.574;2023-06-22T14:17:09;10.40;;;6.82;;
61505;SDS011;47366;51.916;4.574;2023-06-22T14:19:35;9.98;;;6.32;;
61505;SDS011;47366;51.916;4.574;2023-06-22T14:22:00;12.63;;;6.50;;
61505;SDS011;47366;51.916;4.574;2023-06-22T14:24:25;13.63;;;6.85;;
61505;SDS011;47366;51.916;4.574;2023-06-22T14:26:51;10.50;;;6.60;;
61505;SDS011;47366;51.916;4.574;2023-06-22T14:29:16;10.43;;;6.53;;
61505;SDS011;47366;51.916;4.574;2023-06-22T14:31:44;10.50;;;6.35;;
61505;SDS011;47366;51.916;4.574;2023-06-22T14:34:10;10.93;;;6.55;;
61505;SDS011;47366;51.916;4.574;2023-06-22T14:36:35;7.78;;;5.20;;
61505;SDS011;47366;51.916;4.574;2023-06-22T14:39:01;8.45;;;4.68;;
61505;SDS011;47366;51.916;4.574;2023-06-22T14:41:26;9.05;;;4.95;;
61505;SDS011;47366;51.916;4.574;2023-06-22T14:43:52;7.65;;;4.82;;
61505;SDS011;47366;51.916;4.574;2023-06-22T14:46:17;7.32;;;4.93;;